Pagrindinis puslapis
METAR-TAF:

METAR-TAF

Oro uostai :

Guilin, Kinija

platuma: 25-20N, ilguma: 110-18E, Aukštis: 166 m

Dabartinis oras

Ataskaita buvo paskelbta 41 minutes, ne 19:00 UTC
Vėjas 4 kt iš Šiaurės/Šiaurės Vakarų
Temperatūra 8°C
Drėgmė 66%
Slėgis 1030 hPa
Matomumas 10 km arba daugiau
nėra debesų žemiau 1500 m ir nėra kamuolinių lietaus debesų

METAR: ZGKL 171900Z 34002MPS CAVOK 08/02 Q1030 NOSIG

Laikas: 03:41 (19:41 UTC)

Prognozė

Ataskaita buvo paskelbta 4 valandos ir 39 minutes, ne 15:02 UTC
Prognozė galioja nuo 17 metu 18 UTC su 18 metu 18 UTC
Vėjas 6 kt iš Šiaurės Rytų
Matomumas 10 km arba daugiau
nėra debesų žemiau 1500 m ir nėra kamuolinių lietaus debesų

TAF: ZGKL 171502Z 1718/1818 05003MPS CAVOK TX19/1807Z TN03/1722Z

Orai ataskaitas ir orų prognozės (METAR, TAF).

turimą stotys yra geltonos ir raudonos taškus žemėlapyje.

Perkelti pele per norėdami pamatyti stoties vardą.

Tada spustelėkite, norėdami matyti oro stebėjimo ir prognozės.

Norėdami pakeisti žemėlapį: spustelėkite ant žalios mygtukų su juodo kryžiaus žemyn,; žalią mygtuką su brūkšneliu, jei norite nutolinti; arba žalių rodyklių gretimoms žemėlapius.


METAR-TAF: